Main page
METAR-TAF:

METAR-TAF

Airports :

Hearne Municipal Airport

Hearne, Texas, United States

latitude: 30-52-18N, longitude: 096-37-20W, elevation: 285 ft

Current weather observation

The report was made 52 minutes ago, at 10:35 UTC
Wind 7 mph from the Northeast
Temperature 77°F
Humidity 94%
Pressure 30.05 in. Hg
Visibility: 10 miles
Overcast at a height of 2500 ft

METAR: KLHB 201035Z AUTO 05006KT 10SM OVC025 25/24 A3005 RMK AO2 T02510235

Time: 06:27 (11:27 UTC)


TAF: missing

Weather observations and forecasts of more than 4000 airports (METAR and TAF reports).

The available stations are represented by yellow and red dots on the map.

Hover mouse over dot to see the name of the station.

Then click to see weather observations and forecasts.

To change the map : click on the green buttons with a black cross to zoom in, on the green button with a dash to zoom out, or on the green arrows for adjacent maps.


METAR-TAF: